createdAt,value
2023-02-02T00:01:56.887Z,1.20
2023-02-02T00:04:29.812Z,1.40
2023-02-02T00:06:59.085Z,1.10
2023-02-02T00:09:29.058Z,1.20
2023-02-02T00:11:56.474Z,1.10
2023-02-02T00:14:23.141Z,1.33
2023-02-02T00:16:54.037Z,1.05
2023-02-02T00:19:26.354Z,1.20
2023-02-02T00:21:54.235Z,1.00
2023-02-02T00:24:21.288Z,1.00
2023-02-02T00:26:50.690Z,0.95
2023-02-02T00:29:21.992Z,0.93
2023-02-02T00:31:48.937Z,0.95
2023-02-02T00:34:16.410Z,1.35
2023-02-02T00:36:43.972Z,0.90
2023-02-02T00:39:14.491Z,0.80
2023-02-02T00:41:41.110Z,1.20
2023-02-02T00:44:25.923Z,1.10
2023-02-02T00:46:52.326Z,0.82
2023-02-02T00:49:18.720Z,1.00
2023-02-02T00:51:45.064Z,1.08
2023-02-02T00:54:11.551Z,1.17
2023-02-02T00:56:37.983Z,1.10
2023-02-02T00:59:04.431Z,1.33
2023-02-02T01:01:30.914Z,1.30
2023-02-02T01:03:59.858Z,0.90
2023-02-02T01:06:26.400Z,1.20
2023-02-02T01:08:53.031Z,1.15
2023-02-02T01:11:21.590Z,1.27
2023-02-02T01:13:48.377Z,1.05
2023-02-02T01:16:16.100Z,1.10
2023-02-02T01:18:43.332Z,1.25
2023-02-02T01:21:12.659Z,1.10
2023-02-02T01:23:40.050Z,1.30
2023-02-02T01:26:09.546Z,1.00
2023-02-02T01:28:36.778Z,1.08
2023-02-02T01:31:08.715Z,0.93
2023-02-02T01:33:35.423Z,1.00
2023-02-02T01:36:05.854Z,1.10
2023-02-02T01:38:32.932Z,1.10
2023-02-02T01:40:59.624Z,0.82
2023-02-02T01:43:49.372Z,0.63
2023-02-02T01:46:18.349Z,1.05
2023-02-02T01:49:11.479Z,1.10
2023-02-02T01:51:52.405Z,0.70
2023-02-02T01:54:28.517Z,1.27
2023-02-02T01:56:59.110Z,0.93
2023-02-02T01:59:27.582Z,1.42
2023-02-02T02:01:55.016Z,1.02
2023-02-02T02:04:23.948Z,1.00
2023-02-02T02:06:53.481Z,0.90
2023-02-02T02:09:20.452Z,1.10
2023-02-02T02:11:46.880Z,1.00
2023-02-02T02:14:33.834Z,1.00
2023-02-02T02:17:17.793Z,0.80
2023-02-02T02:20:44.657Z,1.10
2023-02-02T02:24:04.703Z,1.00
2023-02-02T02:27:01.894Z,0.90
2023-02-02T02:29:57.141Z,0.90
2023-02-02T02:32:41.522Z,0.90
2023-02-02T02:35:55.086Z,0.65
2023-02-02T02:38:35.500Z,0.70
2023-02-02T02:41:09.146Z,0.80
2023-02-02T02:43:41.846Z,0.98
2023-02-02T02:46:12.294Z,1.15
2023-02-02T02:48:39.099Z,0.75
2023-02-02T02:51:29.423Z,0.90
2023-02-02T02:53:56.564Z,1.10
2023-02-02T02:56:33.747Z,0.85
2023-02-02T02:59:16.140Z,0.80
2023-02-02T03:02:01.232Z,0.70
2023-02-02T03:04:35.041Z,0.70
2023-02-02T03:07:08.754Z,0.65
2023-02-02T03:09:39.410Z,1.33
2023-02-02T03:12:06.038Z,0.65
2023-02-02T03:14:37.169Z,0.93
2023-02-02T03:17:03.850Z,0.77
2023-02-02T03:19:30.495Z,0.77
2023-02-02T03:21:57.072Z,0.68
2023-02-02T03:24:23.559Z,0.90
2023-02-02T03:26:50.094Z,0.80
2023-02-02T03:29:17.251Z,0.65
2023-02-02T03:31:43.909Z,0.70
2023-02-02T03:34:10.544Z,1.10
2023-02-02T03:36:37.165Z,0.70
2023-02-02T03:39:03.699Z,1.02
2023-02-02T03:41:30.504Z,0.70
2023-02-02T03:43:56.878Z,1.15
2023-02-02T03:46:23.564Z,1.10
2023-02-02T03:48:50.199Z,0.80
2023-02-02T03:51:16.970Z,0.82
2023-02-02T03:53:49.453Z,0.73
2023-02-02T03:56:16.521Z,0.52
2023-02-02T03:58:42.950Z,0.88
2023-02-02T04:01:13.611Z,0.70
2023-02-02T04:03:46.205Z,0.60
2023-02-02T04:06:12.589Z,0.82
2023-02-02T04:08:39.415Z,0.82
2023-02-02T04:11:09.748Z,0.80
2023-02-02T04:13:36.306Z,1.15
2023-02-02T04:16:02.870Z,0.80
2023-02-02T04:18:29.469Z,0.60
2023-02-02T04:21:00.392Z,0.60
2023-02-02T04:23:28.669Z,0.90
2023-02-02T04:25:55.638Z,0.80
2023-02-02T04:28:23.760Z,0.77
2023-02-02T04:30:51.688Z,0.82
2023-02-02T04:33:18.312Z,0.70
2023-02-02T04:35:45.077Z,0.75
2023-02-02T04:38:11.841Z,0.88
2023-02-02T04:40:39.813Z,0.80
2023-02-02T04:43:06.313Z,0.90
2023-02-02T04:45:32.961Z,0.80
2023-02-02T04:47:59.521Z,0.70
2023-02-02T04:50:25.861Z,0.70
2023-02-02T04:52:52.259Z,1.02
2023-02-02T04:55:18.617Z,0.85
2023-02-02T04:57:44.983Z,0.82
2023-02-02T05:00:12.136Z,1.00
2023-02-02T05:02:39.757Z,0.95
2023-02-02T05:05:09.519Z,0.75
2023-02-02T05:07:36.121Z,0.80
2023-02-02T05:10:04.743Z,0.98
2023-02-02T05:12:31.106Z,1.02
2023-02-02T05:15:00.902Z,1.00
2023-02-02T05:19:53.952Z,0.80
2023-02-02T05:22:20.321Z,1.10
2023-02-02T05:24:46.681Z,0.80
2023-02-02T05:27:13.063Z,0.90
2023-02-02T05:29:39.436Z,0.73
2023-02-02T05:32:05.855Z,0.98
2023-02-02T05:34:32.315Z,0.75
2023-02-02T05:36:58.871Z,0.73
2023-02-02T05:39:25.285Z,0.82
2023-02-02T05:41:51.879Z,0.90
2023-02-02T05:44:18.462Z,0.80
2023-02-02T05:46:45.677Z,0.95
2023-02-02T05:49:14.151Z,1.30
2023-02-02T05:51:47.655Z,1.13
2023-02-02T05:54:19.164Z,1.05
2023-02-02T05:56:47.283Z,0.85
2023-02-02T05:59:13.887Z,1.10
2023-02-02T06:01:40.302Z,0.75
2023-02-02T06:04:06.669Z,0.75
2023-02-02T06:06:35.444Z,1.10
2023-02-02T06:09:02.452Z,0.88
2023-02-02T06:11:28.910Z,1.30
2023-02-02T06:13:55.317Z,0.80
2023-02-02T06:16:21.656Z,0.90
2023-02-02T06:18:48.610Z,0.70
2023-02-02T06:21:15.056Z,1.20
2023-02-02T06:23:45.838Z,1.00
2023-02-02T06:26:13.696Z,1.10
2023-02-02T06:28:40.053Z,1.30
2023-02-02T06:31:07.951Z,0.93
2023-02-02T06:33:34.711Z,1.00
2023-02-02T06:36:02.515Z,1.05
2023-02-02T06:38:29.121Z,0.82
2023-02-02T06:40:55.942Z,1.00
2023-02-02T06:43:23.896Z,0.90
2023-02-02T06:45:50.232Z,1.20
2023-02-02T06:48:16.601Z,0.90
2023-02-02T06:50:43.048Z,1.25
2023-02-02T06:53:09.542Z,0.65
2023-02-02T06:55:35.983Z,1.27
2023-02-02T06:58:02.510Z,0.95
2023-02-02T07:00:29.935Z,0.93
2023-02-02T07:02:56.402Z,1.30
2023-02-02T07:05:27.134Z,0.90
2023-02-02T07:07:54.340Z,1.15
2023-02-02T07:11:13.923Z,1.70
2023-02-02T07:13:07.232Z,1.08
2023-02-02T07:15:34.438Z,1.52
2023-02-02T07:18:01.413Z,1.30
2023-02-02T07:20:27.803Z,1.17
2023-02-02T07:22:54.155Z,1.33
2023-02-02T07:25:20.539Z,1.15
2023-02-02T07:27:47.865Z,0.95
2023-02-02T07:30:15.336Z,1.05
2023-02-02T07:32:46.518Z,1.05
2023-02-02T07:35:12.854Z,1.10
2023-02-02T07:37:40.085Z,1.00
2023-02-02T07:40:07.712Z,1.27
2023-02-02T07:42:34.142Z,1.38
2023-02-02T07:45:01.218Z,1.20
2023-02-02T07:47:47.548Z,0.98
2023-02-02T07:50:13.906Z,1.75
2023-02-02T07:52:40.342Z,0.80
2023-02-02T07:55:14.315Z,0.85
2023-02-02T07:57:41.389Z,1.63
2023-02-02T08:00:08.177Z,0.95
2023-02-02T08:02:34.562Z,1.15
2023-02-02T08:05:00.919Z,1.30
2023-02-02T08:07:27.402Z,1.10
2023-02-02T08:09:53.804Z,1.45
2023-02-02T08:12:24.802Z,1.02
2023-02-02T08:14:52.030Z,1.48
2023-02-02T08:17:18.677Z,1.80
2023-02-02T08:19:45.006Z,1.10
2023-02-02T08:22:11.372Z,1.15
2023-02-02T08:24:42.801Z,1.50
2023-02-02T08:27:10.092Z,1.23
2023-02-02T08:29:39.282Z,0.90
2023-02-02T08:32:05.674Z,1.42
2023-02-02T08:34:34.788Z,1.63
2023-02-02T08:37:01.203Z,1.02
2023-02-02T08:39:27.708Z,1.08
2023-02-02T08:41:57.074Z,1.02
2023-02-02T08:44:24.576Z,1.50
2023-02-02T08:49:19.577Z,1.27
2023-02-02T08:51:45.987Z,1.23
2023-02-02T08:54:12.351Z,0.80
2023-02-02T08:56:38.726Z,1.00
2023-02-02T08:59:05.949Z,1.52
2023-02-02T09:01:33.575Z,1.48
2023-02-02T09:04:05.856Z,1.33
2023-02-02T09:06:40.306Z,0.98
2023-02-02T09:09:13.140Z,2.63
2023-02-02T09:11:39.969Z,1.50
2023-02-02T09:14:06.969Z,5.75
2023-02-02T09:16:34.790Z,1.63
2023-02-02T09:19:01.468Z,1.38
2023-02-02T09:21:27.819Z,1.10
2023-02-02T09:23:54.445Z,1.20
2023-02-02T09:26:29.247Z,1.30
2023-02-02T09:28:58.075Z,1.20
2023-02-02T09:31:25.591Z,1.13
2023-02-02T09:33:52.111Z,1.42
2023-02-02T09:36:21.518Z,1.25
2023-02-02T09:38:49.014Z,2.08
2023-02-02T09:41:43.360Z,1.23
2023-02-02T09:44:42.905Z,1.55
2023-02-02T09:47:27.646Z,1.45
2023-02-02T09:49:56.768Z,1.27
2023-02-02T09:52:35.317Z,1.10
2023-02-02T09:55:13.701Z,1.50
2023-02-02T09:57:45.771Z,1.60
2023-02-02T10:00:29.398Z,2.25
2023-02-02T10:03:03.400Z,1.10
2023-02-02T10:05:43.854Z,2.53
2023-02-02T10:08:28.983Z,2.00
2023-02-02T10:11:09.897Z,1.60
2023-02-02T10:13:39.784Z,1.90
2023-02-02T10:16:19.900Z,1.48
2023-02-02T10:18:50.062Z,1.70
2023-02-02T10:21:29.033Z,1.33
2023-02-02T10:23:57.271Z,1.70
2023-02-02T10:26:38.757Z,1.75
2023-02-02T10:29:18.691Z,1.42
2023-02-02T10:32:06.511Z,1.20
2023-02-02T10:34:41.668Z,1.95
2023-02-02T10:37:23.610Z,1.40
2023-02-02T10:40:44.635Z,1.90
2023-02-02T10:43:48.839Z,1.50
2023-02-02T10:46:26.213Z,1.20
2023-02-02T10:49:10.963Z,2.17
2023-02-02T10:51:38.061Z,1.70
2023-02-02T10:54:56.667Z,2.22
2023-02-02T10:57:47.763Z,1.92
2023-02-02T11:00:40.411Z,1.48
2023-02-02T11:03:10.062Z,1.63
2023-02-02T11:05:55.306Z,1.50
2023-02-02T11:08:28.820Z,1.60
2023-02-02T11:10:58.044Z,1.80
2023-02-02T11:13:35.257Z,1.75
2023-02-02T11:16:20.183Z,1.70
2023-02-02T11:18:46.691Z,1.58
2023-02-02T11:21:24.329Z,1.42
2023-02-02T11:23:53.229Z,1.45
2023-02-02T11:26:19.622Z,1.20
2023-02-02T11:28:49.164Z,1.63
2023-02-02T11:31:35.613Z,1.92
2023-02-02T11:34:20.401Z,1.55
2023-02-02T11:37:14.924Z,1.73
2023-02-02T11:39:42.723Z,1.75
2023-02-02T11:42:20.989Z,1.65
2023-02-02T11:44:53.948Z,1.58
2023-02-02T11:47:25.926Z,2.05
2023-02-02T11:49:54.695Z,1.90
2023-02-02T11:52:26.985Z,1.58
2023-02-02T11:57:25.187Z,1.65
2023-02-02T12:00:06.283Z,2.08
2023-02-02T12:02:33.851Z,1.75
2023-02-02T12:05:13.961Z,1.80
2023-02-02T12:07:42.060Z,2.08
2023-02-02T12:10:34.009Z,2.25
2023-02-02T12:13:35.523Z,1.70
2023-02-02T12:16:30.919Z,1.88
2023-02-02T12:19:17.118Z,1.80
2023-02-02T12:21:57.263Z,2.08
2023-02-02T12:24:42.442Z,2.17
2023-02-02T12:27:11.804Z,2.10
2023-02-02T12:30:10.492Z,2.50
2023-02-02T12:33:11.020Z,1.85
2023-02-02T12:36:13.158Z,1.70
2023-02-02T12:39:01.874Z,1.55
2023-02-02T12:42:16.304Z,1.83
2023-02-02T12:45:03.446Z,1.65
2023-02-02T12:47:46.899Z,1.90
2023-02-02T12:50:43.718Z,1.63
2023-02-02T12:53:23.124Z,1.55
2023-02-02T12:56:04.541Z,1.48
2023-02-02T12:58:36.284Z,1.05
2023-02-02T13:01:28.874Z,1.40
2023-02-02T13:04:24.144Z,1.55
2023-02-02T13:07:11.973Z,1.60
2023-02-02T13:10:03.725Z,1.58
2023-02-02T13:12:35.505Z,1.45
2023-02-02T13:15:07.645Z,2.50
2023-02-02T13:17:41.579Z,1.40
2023-02-02T13:20:23.847Z,1.23
2023-02-02T13:22:55.589Z,1.30
2023-02-02T13:25:30.459Z,1.15
2023-02-02T13:27:59.725Z,1.17
2023-02-02T13:30:34.040Z,1.27
2023-02-02T13:33:05.214Z,1.40
2023-02-02T13:35:38.027Z,1.25
2023-02-02T13:38:21.215Z,1.10
2023-02-02T13:40:48.772Z,1.55
2023-02-02T13:43:39.901Z,1.00
2023-02-02T13:46:09.343Z,1.17
2023-02-02T13:48:56.580Z,1.00
2023-02-02T13:51:54.673Z,0.90
2023-02-02T13:54:49.079Z,1.20
2023-02-02T13:57:34.254Z,1.48
2023-02-02T14:00:12.657Z,1.25
2023-02-02T14:02:55.984Z,1.30
2023-02-02T14:05:27.406Z,1.10
2023-02-02T14:08:00.445Z,1.38
2023-02-02T14:10:28.528Z,1.45
2023-02-02T14:12:56.187Z,1.13
2023-02-02T14:15:40.042Z,0.93
2023-02-02T14:18:06.634Z,5.60
2023-02-02T14:20:44.929Z,1.20
2023-02-02T14:23:50.890Z,1.33
2023-02-02T14:26:20.587Z,1.50
2023-02-02T14:28:51.198Z,1.40
2023-02-02T14:31:49.091Z,1.45
2023-02-02T14:34:34.789Z,1.67
2023-02-02T14:37:22.892Z,2.22
2023-02-02T14:40:07.592Z,1.60
2023-02-02T14:43:14.722Z,1.90
2023-02-02T14:46:02.149Z,1.75
2023-02-02T14:48:28.529Z,1.98
2023-02-02T14:51:00.267Z,1.60
2023-02-02T14:53:37.231Z,1.55
2023-02-02T14:56:11.088Z,1.75
2023-02-02T14:58:42.779Z,1.75
2023-02-02T15:01:17.982Z,6.45
2023-02-02T15:03:57.398Z,1.73
2023-02-02T15:06:43.133Z,1.60
2023-02-02T15:09:27.934Z,1.55
2023-02-02T15:12:06.749Z,1.58
2023-02-02T15:14:38.180Z,1.67
2023-02-02T15:17:12.820Z,1.38
2023-02-02T15:19:43.992Z,2.33
2023-02-02T15:22:24.188Z,1.73
2023-02-02T15:24:52.995Z,1.60
2023-02-02T15:27:22.691Z,1.70
2023-02-02T15:32:22.207Z,1.65
2023-02-02T15:37:23.629Z,1.90
2023-02-02T15:39:56.680Z,1.65
2023-02-02T15:42:53.026Z,2.03
2023-02-02T15:45:29.565Z,1.70
2023-02-02T15:47:57.669Z,2.35
2023-02-02T15:50:24.925Z,2.00
2023-02-02T15:52:53.655Z,1.70
2023-02-02T15:55:30.134Z,1.85
2023-02-02T15:57:56.598Z,1.60
2023-02-02T16:00:30.607Z,2.00
2023-02-02T16:03:07.610Z,1.98
2023-02-02T16:05:37.051Z,1.80
2023-02-02T16:08:13.404Z,1.70
2023-02-02T16:10:40.046Z,2.33
2023-02-02T16:13:06.405Z,2.30
2023-02-02T16:15:32.929Z,2.50
2023-02-02T16:18:01.276Z,2.85
2023-02-02T16:20:29.285Z,9.05
2023-02-02T16:23:01.774Z,3.60
2023-02-02T16:25:32.907Z,3.65
2023-02-02T16:28:03.367Z,1.80
2023-02-02T16:30:39.641Z,0.73
2023-02-02T16:33:29.018Z,1.52
2023-02-02T16:35:56.280Z,1.20
2023-02-02T16:38:22.565Z,1.08
2023-02-02T16:40:48.961Z,1.42
2023-02-02T16:43:20.698Z,1.10
2023-02-02T16:45:50.624Z,1.55
2023-02-02T16:48:20.190Z,1.23
2023-02-02T16:50:48.894Z,1.52
2023-02-02T16:53:23.870Z,1.50
2023-02-02T16:55:51.551Z,1.65
2023-02-02T16:58:21.351Z,1.58
2023-02-02T17:01:12.268Z,2.30
2023-02-02T17:03:49.130Z,2.13
2023-02-02T17:06:15.599Z,2.30
2023-02-02T17:08:42.000Z,2.80
2023-02-02T17:11:24.308Z,2.28
2023-02-02T17:13:51.112Z,1.95
2023-02-02T17:16:20.023Z,2.40
2023-02-02T17:18:46.861Z,2.20
2023-02-02T17:21:16.889Z,2.92
2023-02-02T17:23:43.743Z,3.03
2023-02-02T17:26:12.039Z,3.00
2023-02-02T17:28:40.475Z,3.50
2023-02-02T17:31:10.679Z,3.65
2023-02-02T17:33:37.546Z,4.50
2023-02-02T17:36:05.307Z,4.63
2023-02-02T17:38:35.251Z,5.47
2023-02-02T17:41:03.195Z,5.03
2023-02-02T17:43:30.949Z,5.18
2023-02-02T17:45:58.174Z,4.45
2023-02-02T17:48:24.861Z,2.42
2023-02-02T17:50:51.378Z,2.67
2023-02-02T17:53:20.625Z,3.13
2023-02-02T17:55:48.214Z,3.85
2023-02-02T17:58:17.090Z,3.60
2023-02-02T18:00:48.704Z,3.47
2023-02-02T18:03:23.692Z,3.40
2023-02-02T18:05:50.635Z,3.65
2023-02-02T18:08:17.034Z,4.07
2023-02-02T18:10:44.021Z,4.38
2023-02-02T18:13:15.885Z,4.68
2023-02-02T18:15:43.127Z,4.75
2023-02-02T18:18:09.619Z,5.65
2023-02-02T18:20:36.406Z,5.40
2023-02-02T18:23:02.916Z,6.22
2023-02-02T18:25:29.307Z,5.28
2023-02-02T18:27:57.534Z,5.85
2023-02-02T18:30:24.425Z,7.10
2023-02-02T18:32:51.124Z,6.50
2023-02-02T18:35:17.540Z,5.88
2023-02-02T18:37:43.902Z,5.93
2023-02-02T18:40:10.950Z,5.65
2023-02-02T18:42:37.323Z,7.18
2023-02-02T18:45:05.136Z,5.97
2023-02-02T18:47:31.516Z,5.47
2023-02-02T18:49:57.879Z,5.32
2023-02-02T18:52:24.378Z,5.05
2023-02-02T18:54:50.898Z,4.50
2023-02-02T18:57:17.758Z,4.10
2023-02-02T18:59:44.127Z,3.38
2023-02-02T19:02:15.384Z,3.80
2023-02-02T19:05:04.665Z,3.95
2023-02-02T19:08:07.177Z,4.90
2023-02-02T19:10:33.563Z,4.07
2023-02-02T19:13:06.484Z,3.72
2023-02-02T19:15:39.240Z,3.05
2023-02-02T19:18:13.527Z,3.58
2023-02-02T19:20:39.963Z,3.60
2023-02-02T19:23:20.638Z,3.03
2023-02-02T19:25:54.164Z,3.35
2023-02-02T19:28:29.897Z,3.83
2023-02-02T19:30:59.458Z,3.83
2023-02-02T19:33:37.611Z,3.70
2023-02-02T19:36:05.783Z,3.47
2023-02-02T19:38:32.122Z,3.83
2023-02-02T19:41:00.335Z,4.10
2023-02-02T19:43:29.129Z,4.30
2023-02-02T19:45:59.300Z,4.22
2023-02-02T19:48:31.025Z,5.15
2023-02-02T19:50:58.255Z,5.55
2023-02-02T19:53:34.715Z,3.67
2023-02-02T19:56:01.963Z,4.15
2023-02-02T19:58:37.357Z,4.30
2023-02-02T20:01:14.997Z,4.07
2023-02-02T20:03:43.178Z,4.90
2023-02-02T20:06:16.695Z,4.22
2023-02-02T20:08:44.199Z,4.03
2023-02-02T20:11:32.235Z,4.00
2023-02-02T20:14:21.622Z,3.30
2023-02-02T20:16:51.423Z,3.80
2023-02-02T20:19:24.100Z,3.50
2023-02-02T20:21:52.294Z,3.30
2023-02-02T20:24:40.517Z,3.13
2023-02-02T20:27:17.866Z,3.40
2023-02-02T20:29:46.480Z,3.08
2023-02-02T20:32:26.423Z,3.63
2023-02-02T20:34:55.494Z,3.33
2023-02-02T20:37:31.700Z,3.35
2023-02-02T20:40:02.215Z,2.95
2023-02-02T20:42:29.227Z,4.60
2023-02-02T20:44:56.304Z,3.83
2023-02-02T20:47:22.662Z,3.13
2023-02-02T20:49:49.001Z,3.30
2023-02-02T20:52:24.010Z,3.58
2023-02-02T20:54:51.474Z,3.05
2023-02-02T20:57:18.553Z,3.40
2023-02-02T20:59:45.090Z,3.45
2023-02-02T21:02:19.049Z,3.05
2023-02-02T21:04:49.642Z,3.22
2023-02-02T21:07:18.060Z,3.47
2023-02-02T21:09:45.417Z,3.10
2023-02-02T21:12:11.801Z,2.85
2023-02-02T21:14:38.844Z,3.10
2023-02-02T21:17:14.872Z,3.25
2023-02-02T21:19:42.017Z,2.92
2023-02-02T21:22:08.651Z,3.53
2023-02-02T21:24:35.035Z,3.10
2023-02-02T21:27:03.227Z,3.20
2023-02-02T21:29:31.366Z,2.95
2023-02-02T21:32:00.680Z,2.88
2023-02-02T21:34:27.226Z,2.92
2023-02-02T21:36:57.958Z,3.30
2023-02-02T21:39:32.174Z,3.10
2023-02-02T21:42:07.460Z,3.25
2023-02-02T21:44:39.386Z,3.35
2023-02-02T21:47:26.502Z,3.05
2023-02-02T21:49:55.549Z,2.80
2023-02-02T21:52:21.920Z,3.28
2023-02-02T21:54:49.173Z,2.92
2023-02-02T21:57:20.996Z,3.38
2023-02-02T21:59:55.749Z,3.05
2023-02-02T22:02:44.972Z,3.50
2023-02-02T22:05:22.699Z,3.20
2023-02-02T22:07:50.348Z,2.85
2023-02-02T22:10:36.396Z,3.08
2023-02-02T22:13:18.964Z,2.90
2023-02-02T22:15:47.364Z,2.50
2023-02-02T22:18:17.121Z,3.13
2023-02-02T22:20:46.856Z,2.70
2023-02-02T22:25:46.519Z,2.70
2023-02-02T22:28:24.452Z,3.95
2023-02-02T22:30:52.525Z,3.10
2023-02-02T22:33:19.622Z,2.78
2023-02-02T22:35:46.419Z,3.67
2023-02-02T22:38:18.162Z,3.22
2023-02-02T22:40:46.118Z,3.47
2023-02-02T22:43:14.779Z,3.50
2023-02-02T22:45:41.155Z,3.53
2023-02-02T22:48:07.573Z,3.45
2023-02-02T22:50:35.231Z,3.97
2023-02-02T22:53:02.764Z,3.60
2023-02-02T22:55:29.857Z,3.13
2023-02-02T22:57:56.368Z,3.67
2023-02-02T23:00:25.931Z,3.10
2023-02-02T23:05:20.960Z,3.13
2023-02-02T23:07:48.748Z,3.30
2023-02-02T23:10:18.171Z,3.95
2023-02-02T23:12:45.586Z,3.78
2023-02-02T23:15:13.355Z,3.22
2023-02-02T23:17:39.839Z,3.83
2023-02-02T23:20:08.872Z,3.67
2023-02-02T23:22:35.253Z,4.03
2023-02-02T23:25:01.672Z,3.83
2023-02-02T23:27:28.031Z,4.10
2023-02-02T23:29:54.377Z,4.07
2023-02-02T23:32:20.785Z,4.80
2023-02-02T23:34:47.159Z,4.53
2023-02-02T23:37:13.635Z,4.03
2023-02-02T23:39:40.049Z,4.30
2023-02-02T23:42:06.402Z,4.80
2023-02-02T23:44:32.887Z,4.20
2023-02-02T23:47:00.774Z,4.15
2023-02-02T23:49:27.232Z,4.20
2023-02-02T23:51:53.652Z,4.40
2023-02-02T23:54:20.124Z,4.20
2023-02-02T23:56:46.461Z,4.25
2023-02-02T23:59:12.891Z,4.05
